• Join FlightAware (Why Join?)
  • Login
  • US Flag 
05:32AM EDT


 

Airport Tracker/Info


-or-


 

Live Flight TrackerFlight Track Log ✈ UAL1062 ✈ 26-Jun-2013 ✈ KIAH - KIAD

Flight Track Log - Related Links

Times and Time Zones

All times are in EDT time to prevent confusion due to time zone crossing. See the UAL1062 flight status page for this flight to view local times or setup timezone preferences in your user account.

Time Position Orientation Groundspeed Altitude Reporting Facility
EDT Latitude Longitude Course Direction KTS MPH feet Rate Location/Type
04:56PM 29.9540 -95.3415 162° South 176 203 900  Level FlightAware ADS-B
04:56PM 29.9466 -95.3416 181° South 180 207 1,100 1,500 Climbing FlightAware ADS-B
04:56PM 29.9441 -95.3424 195° South 182 209 1,200 840 Climbing FlightAware ADS-B
04:56PM 29.9413 -95.3438 203° Southwest 187 215 1,200 840 Level FlightAware ADS-B
04:56PM 29.9386 -95.3458 213° Southwest 191 220 1,300 1,980 Climbing FlightAware ADS-B
04:56PM 29.9365 -95.3480 222° Southwest 196 226 1,400 1,980 Climbing FlightAware ADS-B
04:56PM 29.9345 -95.3505 227° Southwest 199 229 1,500 1,680 Climbing FlightAware ADS-B
04:56PM 29.9325 -95.3541 237° Southwest 206 237 1,600 1,080 Climbing FlightAware ADS-B
04:56PM 29.9304 -95.3617 252° West 217 250 1,700 1,200 Climbing FlightAware ADS-B
04:56PM 29.9301 -95.3654 265° West 220 253 1,800 1,500 Climbing FlightAware ADS-B
04:56PM 29.9306 -95.3713 276° West 227 261 1,900 1,320 Climbing FlightAware ADS-B
04:56PM 29.9319 -95.3759 288° West 233 268 2,000 1,500 Climbing FlightAware ADS-B
04:57PM 29.9342 -95.3808 298° West 239 275 2,100 1,500 Climbing FlightAware ADS-B
04:57PM 29.9370 -95.3849 308° West 246 283 2,200 1,500 Climbing FlightAware ADS-B
04:57PM 29.9399 -95.3879 318° Northwest 247 284 2,300 1,980 Climbing FlightAware ADS-B
04:57PM 29.9450 -95.3915 329° Northwest 247 284 2,500 1,980 Climbing FlightAware ADS-B
04:57PM 29.9491 -95.3935 337° Northwest 248 285 2,600 2,220 Climbing FlightAware ADS-B
04:57PM 29.9538 -95.3945 350° North 245 282 2,800 2,700 Climbing FlightAware ADS-B
04:57PM 29.9624 -95.3941 North 243 280 3,100 2,460 Climbing FlightAware ADS-B
04:57PM 29.9670 -95.3926 16° North 243 280 3,300 2,220 Climbing FlightAware ADS-B
04:57PM 29.9711 -95.3907 22° Northeast 245 282 3,400 2,100 Climbing FlightAware ADS-B
04:57PM 29.9857 -95.3835 23° Northeast 257 296 3,900 1,740 Climbing FlightAware ADS-B
04:58PM 30.0116 -95.3703 24° Northeast 276 318 4,500 1,920 Climbing FlightAware ADS-B
04:58PM 30.0210 -95.3635 35° Northeast 274 315 4,900 2,640 Climbing FlightAware ADS-B
04:58PM 30.0390 -95.3447 43° Northeast 279 321 5,700 2,640 Climbing FlightAware ADS-B
04:58PM 30.0537 -95.3288 43° Northeast 282 325 6,400 2,880 Climbing FlightAware ADS-B
04:59PM 30.0720 -95.3090 43° Northeast 279 321 7,400 2,880 Climbing FlightAware ADS-B
04:59PM 30.0880 -95.2915 43° Northeast 278 320 8,200 2,340 Climbing FlightAware ADS-B
05:00PM 30.1172 -95.2590 44° Northeast 291 335 9,300 2,100 Climbing FlightAware ADS-B
05:00PM 30.1236 -95.2523 42° Northeast 295 339 9,500 1,680 Climbing FlightAware ADS-B
05:00PM 30.1694 -95.2141 35° Northeast 319 367 10,600 1,380 Climbing FlightAware ADS-B
05:01PM 30.1996 -95.1890 36° Northeast 343 395 11,000 1,380 Climbing FlightAware ADS-B
05:01PM 30.2408 -95.1548 36° Northeast 359 413 11,900 1,800 Climbing FlightAware ADS-B
05:02PM 30.2841 -95.1185 36° Northeast 374 430 12,900 2,040 Climbing FlightAware ADS-B
05:03PM 30.3723 -95.0443 36° Northeast 383 441 15,100 1,860 Climbing FlightAware ADS-B
05:06PM 30.6501 -94.8175 33° Northeast 413 475 20,800 1,860 Climbing FlightAware ADS-B
05:06PM 30.7020 -94.7777 33° Northeast 413 475 21,800 2,400 Climbing FlightAware ADS-B
05:07PM 30.7516 -94.7394 34° Northeast 399 459 23,400 2,760 Climbing FlightAware ADS-B
05:07PM 30.7976 -94.7040 33° Northeast 387 445 24,700 1,560 Climbing FlightAware ADS-B
05:08PM 30.8484 -94.6647 34° Northeast 403 464 25,100 720 Climbing FlightAware ADS-B
05:09PM 30.9697 -94.5712 34° Northeast 430 495 26,100 960 Climbing FlightAware ADS-B
05:11PM 31.1325 -94.4447 34° Northeast 438 504 27,900 1,020 Climbing FlightAware ADS-B
05:12PM 31.2042 -94.3897 34° Northeast 430 495 28,600 840 Climbing Fort Worth Center
05:12PM 31.2522 -94.3511 34° Northeast 452 520 29,100 1,260 Climbing Houston Center
05:13PM 31.3775 -94.2547 33° Northeast 451 519 30,700 1,320 Climbing Houston Center
05:14PM 31.4797 -94.1739 34° Northeast 446 513 31,900 1,020 Climbing Houston Center
05:15PM 31.5822 -94.0933 34° Northeast 445 512 32,900 960 Climbing Houston Center
05:16PM 31.6853 -94.0128 34° Northeast 445 512 33,900 960 Climbing Houston Center
05:17PM 31.8008 -93.9211 34° Northeast 441 507 35,000 480 Climbing Houston Center
05:18PM 31.9022 -93.8411 34° Northeast 439 505 35,000  Level Houston Center
05:19PM 32.0033 -93.7614 34° Northeast 437 503 35,000  Level Houston Center
05:21PM 32.1083 -93.6764 34° Northeast 434 499 35,000  Level Houston Center
05:22PM 32.2031 -93.6006 34° Northeast 434 499 35,000  Level Houston Center
05:23PM 32.3217 -93.4972 36° Northeast 434 499 35,000  Level Fort Worth Center
05:29PM 32.9182 -92.9882 36° Northeast 433 498 35,000  Level FlightAware ADS-B
05:29PM 32.9558 -92.9205 56° Northeast 434 499 35,000  Level FlightAware ADS-B
05:31PM 33.0439 -92.7669 56° Northeast 426 490 35,000  Level Fort Worth Center
05:32PM 33.1083 -92.6472 57° Northeast 432 497 35,000  Level Fort Worth Center
05:33PM 33.1747 -92.5294 56° Northeast 432 497 35,000  Level Fort Worth Center
05:35PM 33.3169 -92.2689 57° Northeast 430 495 35,000  Level Memphis Center
05:36PM 33.3856 -92.1486 56° Northeast 430 495 35,000  Level Memphis Center
05:37PM 33.4519 -92.0303 56° Northeast 435 501 35,000  Level Memphis Center
05:38PM 33.5161 -91.9069 58° Northeast 435 501 35,000  Level Memphis Center
05:39PM 33.5803 -91.7836 58° Northeast 435 501 35,000  Level Memphis Center
05:40PM 33.6336 -91.6769 59° Northeast 429 494 35,000  Level Memphis Center
05:41PM 33.7036 -91.5508 56° Northeast 429 494 35,000  Level Memphis Center
05:42PM 33.7675 -91.4317 57° Northeast 429 494 35,000  Level Memphis Center
05:43PM 33.8417 -91.2950 57° Northeast 429 494 35,000  Level Memphis Center
05:44PM 33.9072 -91.1706 58° Northeast 434 499 35,000  Level Memphis Center
05:45PM 33.9642 -91.0583 59° Northeast 434 499 35,000  Level Memphis Center
05:46PM 34.0317 -90.9311 57° Northeast 439 505 35,000  Level Memphis Center
05:47PM 34.0989 -90.8061 57° Northeast 439 505 35,000  Level Memphis Center
05:48PM 34.1639 -90.6758 59° Northeast 450 518 35,000  Level Memphis Center
05:49PM 34.2311 -90.5506 57° Northeast 450 518 35,000  Level Memphis Center
05:50PM 34.2958 -90.4250 58° Northeast 450 518 35,000  Level Memphis Center
05:51PM 34.3647 -90.2942 57° Northeast 450 518 35,000  Level Memphis Center
05:52PM 34.4356 -90.1531 59° Northeast 450 518 35,000  Level Memphis Center
05:53PM 34.5042 -90.0219 58° Northeast 450 518 35,000  Level Memphis Center
05:54PM 34.5661 -89.8931 60° Northeast 450 518 35,000  Level Memphis Center
05:55PM 34.6325 -89.7589 59° Northeast 450 518 35,000  Level Memphis Center
05:56PM 34.6983 -89.6272 59° Northeast 450 518 35,000  Level Memphis Center
05:57PM 34.7686 -89.4950 57° Northeast 456 525 35,000  Level Memphis Center
05:58PM 34.8364 -89.3653 57° Northeast 456 525 35,000  Level Memphis Center
05:59PM 34.9042 -89.2303 58° Northeast 456 525 35,000  Level Memphis Center
06:00PM 34.9697 -89.1003 58° Northeast 456 525 35,000  Level Memphis Center
06:01PM 35.0350 -88.9672 59° Northeast 456 525 35,000  Level Memphis Center
06:02PM 35.1003 -88.8367 59° Northeast 451 519 35,000  Level Memphis Center
06:03PM 35.1672 -88.7061 58° Northeast 451 519 35,000  Level Memphis Center
06:09PM 35.5330 -87.9590 58° Northeast 456 525 35,000  Level FlightAware
06:09PM 35.5670 -87.8870 60° Northeast 457 526 35,000  Level FlightAware
06:10PM 35.6130 -87.7940 59° Northeast 457 526 35,000  Level FlightAware
06:11PM 35.7140 -87.5820 60° Northeast 458 527 35,000  Level FlightAware
06:12PM 35.7600 -87.4840 60° Northeast 457 526 35,000  Level FlightAware
06:13PM 35.7980 -87.4040 60° Northeast 458 527 35,000  Level FlightAware
06:13PM 35.8510 -87.2940 59° Northeast 460 529 35,000  Level FlightAware
06:14PM 35.8940 -87.2040 59° Northeast 462 532 35,000  Level FlightAware
06:15PM 35.9361 -87.1136 60° Northeast 464 534 35,000  Level FlightAware ADS-B
06:15PM 35.9690 -87.0440 60° Northeast 466 536 35,000  Level FlightAware ADS-B
06:16PM 36.0038 -86.9697 60° Northeast 466 536 35,000  Level FlightAware ADS-B
06:17PM 36.0580 -86.8541 60° Northeast 469 540 35,000  Level FlightAware ADS-B
06:17PM 36.0935 -86.7781 60° Northeast 469 540 35,000  Level FlightAware ADS-B
06:18PM 36.1410 -86.6720 61° Northeast 469 540 35,000  Level FlightAware
06:18PM 36.1512 -86.6409 68° East 469 540 35,000  Level FlightAware ADS-B
06:19PM 36.1775 -86.5600 68° East 469 540 35,000  Level FlightAware ADS-B
06:19PM 36.2019 -86.4846 68° East 469 540 35,000  Level FlightAware ADS-B
06:20PM 36.2273 -86.4058 68° East 469 540 35,000  Level FlightAware ADS-B
06:20PM 36.2514 -86.3309 68° East 469 540 35,000  Level FlightAware ADS-B
06:21PM 36.2754 -86.2561 68° East 469 540 35,000  Level FlightAware ADS-B
06:21PM 36.2995 -86.1810 68° East 467 537 35,000  Level FlightAware ADS-B
06:22PM 36.3244 -86.1033 68° East 467 537 35,000  Level FlightAware ADS-B
06:23PM 36.3730 -85.9520 68° East 465 535 35,000  Level FlightAware
06:24PM 36.4137 -85.8224 69° East 463 533 35,000  Level FlightAware ADS-B
06:24PM 36.4379 -85.7455 69° East 462 532 35,000  Level FlightAware ADS-B
06:25PM 36.4611 -85.6717 69° East 460 529 35,000  Level FlightAware ADS-B
06:25PM 36.4897 -85.5806 69° East 459 528 35,000  Level FlightAware ADS-B
06:26PM 36.5143 -85.5023 69° East 458 527 35,000  Level FlightAware ADS-B
06:26PM 36.5394 -85.4218 69° East 457 526 35,000  Level FlightAware ADS-B
06:27PM 36.5630 -85.3457 69° East 455 524 35,000  Level FlightAware ADS-B
06:27PM 36.5892 -85.2617 69° East 455 524 35,000  Level FlightAware ADS-B
06:28PM 36.6144 -85.1808 69° East 455 524 35,000  Level FlightAware ADS-B
06:28PM 36.6371 -85.1072 69° East 455 524 35,000  Level FlightAware ADS-B
06:29PM 36.6629 -85.0232 69° East 455 524 35,000  Level FlightAware ADS-B
06:30PM 36.6854 -84.9499 69° East 456 525 35,000  Level FlightAware ADS-B
06:30PM 36.7153 -84.8523 69° East 455 524 35,000  Level FlightAware ADS-B
06:31PM 36.7377 -84.7785 69° East 454 522 35,000  Level FlightAware ADS-B
06:31PM 36.7611 -84.7018 69° East 454 522 35,000  Level FlightAware ADS-B
06:32PM 36.7836 -84.6277 69° East 453 521 35,000  Level FlightAware ADS-B
06:32PM 36.8065 -84.5519 69° East 452 520 35,000  Level FlightAware ADS-B
06:33PM 36.8287 -84.4786 69° East 453 521 35,000  Level FlightAware ADS-B
06:33PM 36.8519 -84.4015 69° East 452 520 35,000  Level FlightAware ADS-B
06:34PM 36.8751 -84.3242 69° East 452 520 35,000  Level FlightAware ADS-B
06:34PM 36.8985 -84.2460 69° East 452 520 35,000  Level FlightAware ADS-B
06:35PM 36.9210 -84.1707 69° East 451 519 35,000  Level FlightAware ADS-B
06:35PM 36.9443 -84.0928 69° East 451 519 35,000  Level FlightAware ADS-B
06:36PM 36.9676 -84.0144 70° East 454 522 35,000  Level FlightAware ADS-B
06:36PM 36.9898 -83.9392 70° East 456 525 35,000  Level FlightAware ADS-B
06:37PM 37.0118 -83.8647 70° East 456 525 35,000  Level FlightAware ADS-B
06:37PM 37.0364 -83.7811 70° East 455 524 35,000  Level FlightAware ADS-B
06:38PM 37.0678 -83.6740 70° East 457 526 35,000  Level FlightAware ADS-B
06:39PM 37.0897 -83.5994 70° East 458 527 35,000  Level FlightAware ADS-B
06:39PM 37.1228 -83.4852 70° East 460 529 35,000  Level FlightAware ADS-B
06:40PM 37.1461 -83.4053 70° East 462 532 35,000  Level FlightAware ADS-B
06:41PM 37.1680 -83.3300 70° East 462 532 35,000  Level FlightAware ADS-B
06:41PM 37.1898 -83.2545 70° East 463 533 35,000  Level FlightAware ADS-B
06:42PM 37.2182 -83.1554 70° East 464 534 35,000  Level FlightAware ADS-B
06:42PM 37.2404 -83.0783 70° East 464 534 35,000  Level FlightAware ADS-B
06:43PM 37.2626 -83.0005 70° East 464 534 35,000  Level FlightAware ADS-B
06:43PM 37.2884 -82.9100 70° East 463 533 35,000  Level FlightAware ADS-B
06:44PM 37.3146 -82.8177 70° East 463 533 35,000  Level FlightAware ADS-B
06:45PM 37.3456 -82.7084 70° East 462 532 35,000  Level FlightAware ADS-B
06:45PM 37.3650 -82.6400 70° East 461 531 35,000  Level FlightAware
06:45PM 37.3781 -82.5932 71° East 460 529 35,000  Level FlightAware ADS-B
06:47PM 37.4250 -82.4260 71° East 459 528 35,000  Level FlightAware
06:47PM 37.4478 -82.3441 71° East 459 528 35,000  Level FlightAware ADS-B
06:48PM 37.4701 -82.2642 71° East 459 528 35,000  Level FlightAware ADS-B
06:48PM 37.4980 -82.1650 70° East 460 529 35,000  Level FlightAware
06:48PM 37.5032 -82.1446 72° East 459 528 35,000  Level FlightAware ADS-B
06:49PM 37.5305 -82.0456 71° East 460 529 35,000  Level FlightAware ADS-B
06:50PM 37.5542 -81.9592 71° East 460 529 35,000  Level FlightAware ADS-B
06:50PM 37.5786 -81.8708 71° East 462 532 35,000  Level FlightAware ADS-B
06:51PM 37.6037 -81.7788 71° East 463 533 35,000  Level FlightAware ADS-B
06:51PM 37.6256 -81.6985 71° East 463 533 35,000  Level FlightAware ADS-B
06:52PM 37.6730 -81.5250 71° East 460 529 35,000  Level FlightAware
06:53PM 37.6901 -81.4598 72° East 461 531 35,000  Level FlightAware ADS-B
06:54PM 37.7333 -81.2985 71° East 462 532 35,000 -420 Level FlightAware ADS-B
06:55PM 37.7580 -81.2070 71° East 459 528 34,300 -1,440 Descending FlightAware
06:55PM 37.7691 -81.1653 71° East 458 527 33,800 -1,980 Descending FlightAware ADS-B
06:56PM 37.8047 -81.0554 68° East 462 532 32,300 -1,560 Descending FlightAware ADS-B
06:57PM 37.8620 -80.8930 66° East 461 531 31,000 -780 Descending FlightAware
06:57PM 37.8990 -80.7880 66° East 459 528 31,000  Level FlightAware
06:58PM 37.9360 -80.6910 64° Northeast 456 525 31,000  Level FlightAware
06:59PM 37.9840 -80.5940 58° Northeast 457 526 31,000  Level FlightAware
06:59PM 38.0280 -80.5010 59° Northeast 458 527 31,000  Level FlightAware
07:00PM 38.0760 -80.3970 60° Northeast 461 531 31,000  Level FlightAware
07:01PM 38.1200 -80.3000 60° Northeast 460 529 31,000  Level FlightAware
07:02PM 38.1640 -80.2050 59° Northeast 461 531 31,000  Level FlightAware
07:02PM 38.2110 -80.1030 60° Northeast 462 532 31,000  Level FlightAware
07:03PM 38.2540 -80.0110 59° Northeast 460 529 31,000  Level FlightAware
07:04PM 38.3020 -79.9060 60° Northeast 461 531 31,000 -600 Level FlightAware
07:04PM 38.3420 -79.8180 60° Northeast 456 525 30,200 -1,740 Descending FlightAware
07:05PM 38.3860 -79.7210 60° Northeast 448 516 28,700 -2,220 Descending FlightAware
07:06PM 38.4260 -79.6330 60° Northeast 441 507 27,300 -2,100 Descending FlightAware
07:07PM 38.5150 -79.4350 60° Northeast 424 488 24,200 -1,500 Descending FlightAware
07:08PM 38.5480 -79.2840 74° East 423 487 23,500 -1,260 Descending FlightAware
07:09PM 38.5670 -79.1700 78° East 417 480 21,900 -1,980 Descending FlightAware
07:10PM 38.5890 -79.0350 78° East 404 465 20,100 -1,920 Descending FlightAware
07:11PM 38.6030 -78.9530 78° East 395 455 19,000 -1,800 Descending FlightAware
07:11PM 38.6220 -78.8440 77° East 383 441 17,600 -1,920 Descending FlightAware
07:12PM 38.6420 -78.7500 75° East 372 428 16,100 -2,220 Descending FlightAware
07:13PM 38.6680 -78.6400 73° East 363 418 14,100 -2,220 Descending FlightAware
07:14PM 38.6870 -78.5630 72° East 359 413 12,700 -1,860 Descending FlightAware
07:14PM 38.7090 -78.4720 73° East 350 403 11,500 -1,740 Descending FlightAware
07:15PM 38.7330 -78.3910 69° East 341 392 10,300 -1,020 Descending FlightAware
07:16PM 38.7810 -78.3290 45° Northeast 328 377 10,100 -180 Descending FlightAware
07:16PM 38.8250 -78.2760 43° Northeast 328 377 10,100  Level FlightAware
07:17PM 38.8680 -78.2220 44° Northeast 331 381 10,100  Level FlightAware
07:18PM 38.9180 -78.1620 43° Northeast 330 380 10,100 -120 Level FlightAware
07:19PM 38.9600 -78.1110 43° Northeast 306 352 10,000 -600 Descending FlightAware
07:19PM 38.9920 -78.0710 44° Northeast 298 343 9,400 -1,200 Descending FlightAware
07:19PM 39.0160 -78.0420 43° Northeast 298 343 8,900 -1,200 Descending FlightAware
07:20PM 39.0460 -78.0050 44° Northeast 283 326 8,300 -1,320 Descending FlightAware
07:20PM 39.0730 -77.9720 43° Northeast 280 322 7,600 -1,440 Descending FlightAware
07:21PM 39.0930 -77.9470 44° Northeast 280 322 7,000 -1,500 Descending FlightAware
07:21PM 39.1110 -77.9260 42° Northeast 280 322 6,600 -1,500 Descending FlightAware
07:22PM 39.1350 -77.8980 42° Northeast 280 322 6,000 -1,440 Descending FlightAware
07:22PM 39.1610 -77.8670 43° Northeast 278 320 5,300 -1,200 Descending FlightAware
07:22PM 39.1730 -77.8410 59° Northeast 283 326 5,100 -420 Descending FlightAware
07:23PM 39.1760 -77.8160 81° East 282 325 5,100  Level FlightAware
07:23PM 39.1820 -77.7750 79° East 280 322 5,100 -660 Level FlightAware
07:23PM 39.1880 -77.7280 81° East 283 326 4,500 -1,140 Descending FlightAware
07:24PM 39.1940 -77.6870 79° East 280 322 4,100 -480 Descending FlightAware
07:24PM 39.2020 -77.6380 78° East 277 319 4,100  Level FlightAware
07:25PM 39.2090 -77.5910 79° East 279 321 4,100 -660 Level FlightAware
07:25PM 39.2060 -77.5540 96° East 280 322 3,500 -1,200 Descending FlightAware
07:26PM 39.1940 -77.5360 131° Southeast 275 316 3,300 -480 Descending FlightAware
07:26PM 39.1810 -77.5250 147° Southeast 262 302 3,300 -480 Level FlightAware
07:26PM 39.1530 -77.5020 148° Southeast 242 278 3,000 -660 Descending FlightAware
07:27PM 39.1380 -77.4900 148° Southeast 240 276 2,800 -600 Descending FlightAware
07:27PM 39.1090 -77.4720 154° Southeast 217 250 2,600 -360 Descending FlightAware
07:27PM 39.0890 -77.4620 159° South 203 234 2,500 -480 Descending FlightAware
07:28PM 39.0630 -77.4570 172° South 194 223 2,200 -960 Descending FlightAware
07:28PM 39.0300 -77.4590 183° South 168 193 1,500 -720 Descending FlightAware
07:29PM 38.9990 -77.4590 180° South 162 186 1,200 -420 Descending FlightAware